createdAt,value
2018-11-06T00:02:59.739Z,24.02
2018-11-06T00:08:02.076Z,23.90
2018-11-06T00:13:04.899Z,24.43
2018-11-06T00:18:07.205Z,23.80
2018-11-06T00:23:09.538Z,23.92
2018-11-06T00:28:11.865Z,23.92
2018-11-06T00:33:14.245Z,22.95
2018-11-06T00:38:16.545Z,24.07
2018-11-06T00:43:19.009Z,23.22
2018-11-06T00:48:21.449Z,23.93
2018-11-06T00:53:23.757Z,24.40
2018-11-06T00:58:26.081Z,23.85
2018-11-06T01:03:34.069Z,24.00
2018-11-06T01:08:36.374Z,23.37
2018-11-06T01:13:38.916Z,23.97
2018-11-06T01:18:41.359Z,24.63
2018-11-06T01:23:43.666Z,24.27
2018-11-06T01:28:46.034Z,24.40
2018-11-06T01:33:48.482Z,23.87
2018-11-06T01:38:50.866Z,24.35
2018-11-06T01:43:53.270Z,25.27
2018-11-06T01:48:55.625Z,24.52
2018-11-06T01:53:58.107Z,24.32
2018-11-06T01:59:00.452Z,24.80
2018-11-06T02:04:02.914Z,23.07
2018-11-06T02:09:07.408Z,23.73
2018-11-06T02:14:09.804Z,23.35
2018-11-06T02:19:12.233Z,25.00
2018-11-06T02:24:14.580Z,23.70
2018-11-06T02:29:16.943Z,24.27
2018-11-06T02:34:19.416Z,24.03
2018-11-06T02:39:21.771Z,22.65
2018-11-06T02:44:24.347Z,23.47
2018-11-06T02:49:26.694Z,23.45
2018-11-06T02:54:29.265Z,23.37
2018-11-06T02:59:31.627Z,23.77
2018-11-06T03:04:34.030Z,23.23
2018-11-06T03:09:36.438Z,22.67
2018-11-06T03:14:38.796Z,24.57
2018-11-06T03:19:41.104Z,23.12
2018-11-06T03:24:43.396Z,24.50
2018-11-06T03:29:45.714Z,24.90
2018-11-06T03:34:48.005Z,24.52
2018-11-06T03:39:50.306Z,23.27
2018-11-06T03:44:52.648Z,24.07
2018-11-06T03:49:54.974Z,23.60
2018-11-06T03:54:57.276Z,24.77
2018-11-06T03:59:59.852Z,24.27
2018-11-06T04:05:02.239Z,24.13
2018-11-06T04:10:05.517Z,24.53
2018-11-06T04:15:12.276Z,24.17
2018-11-06T04:20:14.679Z,24.63
2018-11-06T04:25:17.009Z,24.63
2018-11-06T04:30:19.574Z,23.47
2018-11-06T04:35:21.886Z,23.30
2018-11-06T04:40:24.261Z,21.97
2018-11-06T04:45:26.602Z,22.48
2018-11-06T04:50:31.325Z,22.03
2018-11-06T04:55:33.630Z,22.60
2018-11-06T05:00:35.962Z,21.40
2018-11-06T05:05:38.278Z,22.20
2018-11-06T05:10:40.570Z,21.27
2018-11-06T05:15:42.918Z,21.90
2018-11-06T05:20:46.535Z,20.90
2018-11-06T05:25:49.080Z,20.90
2018-11-06T05:30:51.366Z,21.23
2018-11-06T05:35:53.634Z,21.47
2018-11-06T05:41:00.749Z,20.57
2018-11-06T05:46:03.115Z,20.83
2018-11-06T05:51:05.529Z,22.33
2018-11-06T05:56:07.806Z,21.30
2018-11-06T06:01:10.275Z,22.00
2018-11-06T06:06:12.554Z,20.97
2018-11-06T06:11:14.882Z,22.23
2018-11-06T06:16:17.203Z,21.70
2018-11-06T06:21:19.549Z,21.43
2018-11-06T06:26:21.831Z,21.10
2018-11-06T06:31:24.111Z,21.43
2018-11-06T06:36:26.387Z,20.93
2018-11-06T06:41:28.682Z,21.23
2018-11-06T06:46:31.037Z,21.90
2018-11-06T06:51:33.362Z,21.23
2018-11-06T06:56:35.662Z,20.00
2018-11-06T07:01:37.969Z,21.43
2018-11-06T07:06:40.252Z,20.43
2018-11-06T07:11:42.545Z,21.07
2018-11-06T07:16:44.878Z,22.00
2018-11-06T07:21:47.151Z,21.47
2018-11-06T07:26:49.423Z,21.13
2018-11-06T07:31:51.994Z,19.52
2018-11-06T07:36:54.263Z,20.43
2018-11-06T07:41:56.569Z,20.33
2018-11-06T07:46:59.114Z,21.17
2018-11-06T07:52:01.410Z,21.40
2018-11-06T07:57:03.798Z,20.90
2018-11-06T08:02:06.153Z,21.77
2018-11-06T08:07:08.434Z,20.87
2018-11-06T08:12:10.723Z,19.85
2018-11-06T08:17:13.069Z,20.17
2018-11-06T08:22:15.338Z,19.25
2018-11-06T08:27:17.635Z,19.05
2018-11-06T08:32:20.067Z,18.42
2018-11-06T08:37:22.258Z,19.48
2018-11-06T08:42:24.628Z,17.70
2018-11-06T08:47:26.935Z,16.70
2018-11-06T08:52:29.243Z,16.75
2018-11-06T08:57:31.532Z,15.58
2018-11-06T09:02:33.940Z,15.88
2018-11-06T09:07:36.412Z,15.80
2018-11-06T09:12:39.222Z,15.93
2018-11-06T09:17:41.938Z,15.40
2018-11-06T09:22:44.201Z,14.70
2018-11-06T09:27:46.485Z,15.03
2018-11-06T09:32:48.779Z,15.50
2018-11-06T09:37:51.049Z,14.73
2018-11-06T09:42:53.342Z,14.13
2018-11-06T09:47:55.674Z,13.15
2018-11-06T09:52:58.080Z,13.62
2018-11-06T09:58:00.409Z,12.75
2018-11-06T10:03:02.732Z,12.85
2018-11-06T10:08:05.026Z,12.45
2018-11-06T10:13:07.314Z,12.68
2018-11-06T10:18:09.638Z,11.75
2018-11-06T10:23:11.918Z,12.85
2018-11-06T10:28:14.233Z,12.85
2018-11-06T10:33:16.540Z,12.73
2018-11-06T10:38:18.847Z,11.93
2018-11-06T10:43:21.134Z,12.33
2018-11-06T10:48:23.481Z,11.83
2018-11-06T10:53:26.106Z,10.80
2018-11-06T10:58:28.411Z,10.70
2018-11-06T11:03:34.725Z,10.30
2018-11-06T11:08:36.998Z,10.38
2018-11-06T11:13:39.277Z,10.60
2018-11-06T11:18:41.570Z,10.35
2018-11-06T11:23:43.933Z,9.60
2018-11-06T11:28:46.222Z,10.93
2018-11-06T11:33:48.574Z,10.10
2018-11-06T11:38:50.942Z,10.43
2018-11-06T11:43:53.455Z,10.58
2018-11-06T11:48:55.796Z,10.10
2018-11-06T11:53:58.084Z,10.88
2018-11-06T11:59:00.357Z,10.13
2018-11-06T12:04:02.691Z,10.18
2018-11-06T12:09:07.475Z,10.23
2018-11-06T12:14:09.750Z,10.00
2018-11-06T12:19:12.089Z,10.05
2018-11-06T12:24:14.540Z,9.83
2018-11-06T12:29:16.707Z,10.00
2018-11-06T12:34:19.002Z,9.13
2018-11-06T12:39:21.292Z,9.10
2018-11-06T12:44:23.635Z,9.15
2018-11-06T12:49:25.950Z,8.78
2018-11-06T12:54:28.245Z,8.73
2018-11-06T12:59:30.505Z,8.38
2018-11-06T13:04:32.793Z,7.85
2018-11-06T13:09:35.069Z,8.70
2018-11-06T13:14:37.466Z,7.97
2018-11-06T13:19:39.757Z,7.40
2018-11-06T13:24:42.042Z,7.30
2018-11-06T13:29:44.323Z,6.90
2018-11-06T13:34:46.602Z,6.45
2018-11-06T13:39:48.899Z,7.53
2018-11-06T13:44:51.592Z,7.47
2018-11-06T13:49:53.544Z,7.55
2018-11-06T13:54:55.823Z,7.55
2018-11-06T13:59:58.136Z,7.20
2018-11-06T14:05:00.599Z,7.22
2018-11-06T14:10:02.926Z,6.85
2018-11-06T14:15:05.438Z,7.00
2018-11-06T14:20:09.845Z,6.90
2018-11-06T14:25:12.981Z,7.25
2018-11-06T14:30:17.095Z,7.37
2018-11-06T14:35:19.791Z,7.47
2018-11-06T14:40:22.185Z,7.55
2018-11-06T14:45:24.469Z,7.50
2018-11-06T14:50:26.781Z,7.92
2018-11-06T14:55:29.061Z,7.90
2018-11-06T15:00:31.353Z,7.83
2018-11-06T15:05:33.669Z,8.30
2018-11-06T15:10:36.011Z,7.90
2018-11-06T15:15:38.300Z,8.28
2018-11-06T15:20:40.794Z,8.10
2018-11-06T15:25:43.190Z,8.58
2018-11-06T15:30:45.553Z,8.15
2018-11-06T15:35:47.862Z,8.03
2018-11-06T15:40:50.161Z,17.35
2018-11-06T15:45:52.768Z,8.40
2018-11-06T15:50:55.276Z,8.33
2018-11-06T15:55:57.911Z,7.95
2018-11-06T16:01:01.287Z,8.85
2018-11-06T16:06:03.792Z,8.60
2018-11-06T16:11:07.395Z,8.98
2018-11-06T16:16:09.692Z,8.10
2018-11-06T16:21:13.459Z,9.48
2018-11-06T16:26:15.816Z,9.20
2018-11-06T16:31:18.156Z,10.00
2018-11-06T16:36:20.614Z,9.78
2018-11-06T16:41:23.028Z,9.63
2018-11-06T16:46:25.387Z,10.80
2018-11-06T16:51:27.794Z,10.10
2018-11-06T16:56:30.191Z,9.75
2018-11-06T17:01:32.590Z,11.15
2018-11-06T17:06:39.519Z,11.10
2018-11-06T17:11:41.947Z,11.57
2018-11-06T17:16:44.548Z,13.03
2018-11-06T17:21:46.949Z,13.13
2018-11-06T17:26:49.310Z,13.80
2018-11-06T17:31:51.594Z,13.22
2018-11-06T17:36:53.879Z,13.68
2018-11-06T17:41:56.298Z,13.25
2018-11-06T17:46:58.734Z,14.45
2018-11-06T17:52:01.163Z,14.50
2018-11-06T17:57:03.621Z,15.05
2018-11-06T18:02:06.231Z,15.35
2018-11-06T18:07:08.763Z,17.65
2018-11-06T18:12:10.814Z,18.55
2018-11-06T18:17:13.174Z,17.00
2018-11-06T18:22:15.595Z,17.02
2018-11-06T18:27:17.891Z,16.07
2018-11-06T18:32:20.341Z,17.82
2018-11-06T18:37:22.693Z,17.57
2018-11-06T18:42:25.066Z,18.55
2018-11-06T18:47:27.560Z,18.12
2018-11-06T18:52:30.026Z,18.87
2018-11-06T18:57:32.439Z,19.00
2018-11-06T19:02:34.860Z,19.62
2018-11-06T19:07:37.463Z,19.80
2018-11-06T19:12:39.895Z,19.40
2018-11-06T19:17:43.004Z,20.95
2018-11-06T19:22:45.626Z,22.85
2018-11-06T19:27:47.890Z,22.55
2018-11-06T19:32:50.228Z,21.77
2018-11-06T19:37:52.547Z,21.48
2018-11-06T19:42:54.839Z,21.90
2018-11-06T19:47:57.178Z,22.22
2018-11-06T19:52:59.528Z,22.95
2018-11-06T19:58:01.899Z,24.05
2018-11-06T20:03:04.740Z,22.65
2018-11-06T20:08:07.085Z,24.40
2018-11-06T20:13:09.826Z,24.10
2018-11-06T20:18:12.298Z,25.43
2018-11-06T20:23:14.643Z,25.12
2018-11-06T20:28:16.919Z,25.65
2018-11-06T20:33:19.316Z,26.73
2018-11-06T20:38:21.511Z,25.70
2018-11-06T20:43:23.787Z,27.22
2018-11-06T20:48:26.106Z,27.82
2018-11-06T20:53:28.456Z,28.67
2018-11-06T20:58:30.757Z,28.25
2018-11-06T21:03:33.255Z,27.93
2018-11-06T21:08:35.592Z,28.62
2018-11-06T21:13:38.370Z,29.27
2018-11-06T21:18:40.812Z,28.98
2018-11-06T21:23:43.532Z,29.42
2018-11-06T21:28:45.805Z,29.87
2018-11-06T21:33:48.144Z,28.30
2018-11-06T21:38:50.430Z,29.52
2018-11-06T21:43:52.761Z,29.70
2018-11-06T21:48:55.034Z,29.75
2018-11-06T21:53:57.476Z,29.82
2018-11-06T21:58:59.737Z,28.77
2018-11-06T22:04:02.055Z,28.47
2018-11-06T22:09:06.305Z,29.18
2018-11-06T22:14:08.642Z,30.57
2018-11-06T22:19:10.960Z,29.52
2018-11-06T22:24:13.335Z,30.08
2018-11-06T22:29:15.607Z,27.85
2018-11-06T22:34:17.886Z,30.23
2018-11-06T22:39:20.190Z,30.77
2018-11-06T22:44:22.457Z,31.17
2018-11-06T22:49:24.722Z,30.10
2018-11-06T22:54:27.081Z,30.00
2018-11-06T22:59:29.426Z,30.55
2018-11-06T23:04:31.722Z,30.35
2018-11-06T23:09:33.988Z,30.27
2018-11-06T23:14:36.276Z,27.93
2018-11-06T23:19:38.573Z,29.30
2018-11-06T23:24:40.869Z,29.65
2018-11-06T23:29:43.154Z,29.48
2018-11-06T23:34:45.416Z,30.10
2018-11-06T23:39:47.709Z,28.75
2018-11-06T23:44:49.981Z,28.17
2018-11-06T23:49:52.266Z,29.02
2018-11-06T23:54:54.801Z,29.48
2018-11-06T23:59:57.398Z,30.12
